Time;durP1;ratioP1;P1;durP2;ratioP2;P2;SDS_P1;SDS_P2;PMS_P1;PMS_P2;Temp;Humidity;BMP_temperature;BMP_pressure;BME280_temperature;BME280_humidity;BME280_pressure;Samples;Min_cycle;Max_cycle;Signal;HPM_P1;HPM_P2
2022/06/03 00:00:06;;;;;;;8.45;2.75;;;14.10;99.90;;;;;;5016456;28;20061;-66
2022/06/03 00:03:02;;;;;;;4.50;2.40;;;14.10;99.90;;;;;;5008712;28;20053;-66
2022/06/03 00:05:46;;;;;;;5.65;2.30;;;14.10;99.90;;;;;;5026054;28;20468;-65
2022/06/03 00:08:18;;;;;;;4.93;2.20;;;14.00;99.90;;;;;;5025231;28;20088;-65
2022/06/03 00:11:10;;;;;;;4.20;2.20;;;14.00;99.90;;;;;;5013603;28;20053;-66
2022/06/03 00:14:25;;;;;;;5.10;2.10;;;14.00;99.90;;;;;;4999438;28;20053;-66
2022/06/03 00:17:46;;;;;;;6.47;2.22;;;13.90;99.90;;;;;;5012454;28;20053;-66
2022/06/03 00:20:24;;;;;;;5.72;2.15;;;13.90;99.90;;;;;;5045392;28;20126;-66
2022/06/03 00:23:03;;;;;;;5.03;2.47;;;13.90;99.90;;;;;;5045002;28;20048;-66
2022/06/03 00:25:56;;;;;;;4.30;2.72;;;13.90;99.90;;;;;;5043300;28;20211;-66
2022/06/03 00:28:26;;;;;;;6.28;2.20;;;13.80;99.90;;;;;;5053083;28;20045;-66
2022/06/03 00:31:25;;;;;;;5.10;2.28;;;13.70;99.90;;;;;;5045310;28;20488;-66
2022/06/03 00:34:06;;;;;;;5.65;2.25;;;13.70;99.90;;;;;;5035239;28;20128;-66
2022/06/03 00:36:45;;;;;;;3.55;2.15;;;13.70;99.90;;;;;;5028301;28;20638;-66
2022/06/03 00:39:41;;;;;;;4.07;2.10;;;13.70;99.90;;;;;;5041121;28;20523;-66
2022/06/03 00:42:42;;;;;;;3.45;2.10;;;13.70;99.90;;;;;;5053598;28;20411;-65
2022/06/03 00:45:30;;;;;;;4.75;2.50;;;13.70;99.90;;;;;;5060481;28;20068;-65
2022/06/03 00:48:19;;;;;;;5.90;2.40;;;13.70;99.90;;;;;;5055770;28;20049;-65
2022/06/03 00:51:06;;;;;;;6.93;2.40;;;13.60;99.90;;;;;;5049195;28;20551;-65
2022/06/03 00:53:58;;;;;;;6.20;2.55;;;13.60;99.90;;;;;;5031147;28;20069;-66
2022/06/03 00:56:35;;;;;;;6.25;2.20;;;13.60;99.90;;;;;;5034749;28;20041;-65
2022/06/03 00:59:02;;;;;;;4.50;2.00;;;13.70;99.90;;;;;;5040909;28;20037;-66
2022/06/03 01:02:09;;;;;;;5.13;2.10;;;13.60;99.90;;;;;;5042960;28;20037;-65
2022/06/03 01:05:18;;;;;;;4.80;2.40;;;13.60;99.90;;;;;;5032133;28;20434;-65
2022/06/03 01:07:50;;;;;;;5.57;2.10;;;13.70;99.90;;;;;;4936713;29;20109;-65
2022/06/03 01:10:53;;;;;;;4.03;2.10;;;13.70;99.90;;;;;;4932062;29;20051;-66
2022/06/03 01:13:32;;;;;;;4.05;1.98;;;13.70;99.90;;;;;;4856579;29;20474;-66
2022/06/03 01:16:36;;;;;;;3.70;1.80;;;13.70;99.90;;;;;;4856240;29;20209;-66
2022/06/03 01:19:37;;;;;;;3.30;1.92;;;13.70;99.90;;;;;;4852339;29;20057;-66
2022/06/03 01:22:29;;;;;;;5.63;1.90;;;13.70;99.90;;;;;;4842980;29;20545;-66
2022/06/03 01:25:02;;;;;;;5.30;2.17;;;13.80;99.90;;;;;;4854792;29;20092;-65
2022/06/03 01:27:48;;;;;;;5.90;2.13;;;13.80;99.90;;;;;;4841020;29;20098;-66
2022/06/03 01:30:36;;;;;;;4.50;1.92;;;13.90;99.90;;;;;;4854671;29;20593;-65
2022/06/03 01:33:23;;;;;;;5.68;2.05;;;13.90;99.90;;;;;;4855659;29;20585;-65
2022/06/03 01:36:04;;;;;;;3.63;1.85;;;13.90;99.90;;;;;;4850698;29;20049;-66
2022/06/03 01:38:58;;;;;;;3.78;1.85;;;13.90;99.90;;;;;;4857697;29;20053;-66
2022/06/03 01:41:48;;;;;;;3.97;1.70;;;13.90;99.90;;;;;;4846369;29;20140;-66
2022/06/03 01:44:43;;;;;;;3.60;1.92;;;13.90;99.90;;;;;;4882930;28;20050;-66
2022/06/03 01:47:32;;;;;;;3.00;2.00;;;13.90;99.90;;;;;;4979745;28;20083;-66
2022/06/03 01:50:34;;;;;;;6.50;2.00;;;14.00;99.90;;;;;;5032336;28;20052;-66
2022/06/03 01:53:12;;;;;;;4.32;1.73;;;14.00;99.90;;;;;;5031041;28;20057;-66
2022/06/03 01:56:05;;;;;;;4.22;2.08;;;14.00;99.90;;;;;;5031459;28;20053;-66
2022/06/03 01:58:55;;;;;;;;;;;14.00;99.90;;;;;;5032464;28;20038;-66
2022/06/03 02:02:00;;;;;;;4.95;2.28;;;14.00;99.90;;;;;;5037687;28;20016;-66
2022/06/03 02:05:13;;;;;;;3.38;1.90;;;14.00;99.90;;;;;;5030921;28;20045;-66
2022/06/03 02:07:43;;;;;;;4.07;2.10;;;14.00;99.90;;;;;;5032279;28;20567;-66
2022/06/03 02:10:22;;;;;;;3.92;2.22;;;14.00;99.90;;;;;;5028500;28;20401;-66
2022/06/03 02:13:10;;;;;;;8.20;2.17;;;13.90;99.90;;;;;;5034031;28;20579;-66
2022/06/03 02:16:31;;;;;;;4.78;2.00;;;13.90;99.90;;;;;;5035293;28;20137;-65
2022/06/03 02:19:26;;;;;;;3.15;1.85;;;13.90;99.90;;;;;;5028885;28;20049;-66
2022/06/03 02:22:40;;;;;;;5.60;2.00;;;13.90;99.90;;;;;;5041852;28;20056;-65
2022/06/03 02:25:27;;;;;;;2.70;1.95;;;13.90;99.90;;;;;;5042357;28;20097;-65
2022/06/03 02:28:26;;;;;;;4.00;1.95;;;13.90;99.90;;;;;;5035461;28;20060;-66
2022/06/03 02:31:17;;;;;;;7.18;2.75;;;13.90;99.90;;;;;;5021318;28;20572;-66
2022/06/03 02:34:23;;;;;;;4.13;2.13;;;13.90;99.90;;;;;;5031612;28;20041;-66
2022/06/03 02:37:14;;;;;;;5.18;2.08;;;13.90;99.90;;;;;;5015963;28;20147;-65
2022/06/03 02:40:25;;;;;;;3.83;2.10;;;13.90;99.90;;;;;;5024319;28;20103;-64
2022/06/03 02:43:11;;;;;;;3.85;2.20;;;13.90;99.90;;;;;;5019863;28;20624;-65
2022/06/03 02:46:12;;;;;;;4.15;2.30;;;13.90;99.90;;;;;;5021450;28;20045;-65
2022/06/03 02:48:52;;;;;;;4.90;2.10;;;13.90;99.90;;;;;;5031744;28;20068;-66
2022/06/03 02:51:19;;;;;;;4.47;2.22;;;13.80;99.90;;;;;;5038584;28;20155;-66
2022/06/03 02:54:25;;;;;;;3.63;2.30;;;13.90;99.90;;;;;;5046208;28;20091;-65
2022/06/03 02:57:16;;;;;;;5.95;2.03;;;13.80;99.90;;;;;;5033409;28;20586;-65
2022/06/03 02:59:46;;;;;;;6.50;2.20;;;13.80;99.90;;;;;;5027689;28;20089;-66
2022/06/03 03:02:52;;;;;;;3.65;2.30;;;13.70;99.90;;;;;;5019142;28;20074;-66
2022/06/03 03:05:45;;;;;;;3.75;2.10;;;13.70;99.90;;;;;;5007274;28;20058;-66
2022/06/03 03:08:41;;;;;;;3.38;2.28;;;13.70;99.90;;;;;;4996641;28;20551;-65
2022/06/03 03:11:41;;;;;;;4.93;2.53;;;13.60;99.90;;;;;;5005743;28;20225;-65
2022/06/03 03:14:41;;;;;;;4.85;2.50;;;13.70;99.90;;;;;;4999244;28;20486;-66
2022/06/03 03:17:42;;;;;;;3.72;2.30;;;13.60;99.90;;;;;;5001667;28;20053;-66
2022/06/03 03:20:28;;;;;;;4.72;2.55;;;13.70;99.90;;;;;;4978819;28;20479;-66
2022/06/03 03:23:01;;;;;;;4.57;2.65;;;13.70;99.90;;;;;;4999934;28;20077;-65
2022/06/03 03:25:43;;;;;;;5.72;2.50;;;13.70;99.90;;;;;;4986624;28;20042;-65
2022/06/03 03:28:10;;;;;;;4.15;2.67;;;13.70;99.90;;;;;;5004629;28;20534;-65
2022/06/03 03:30:49;;;;;;;3.22;2.20;;;13.70;99.90;;;;;;5005054;28;20067;-65
2022/06/03 03:33:58;;;;;;;4.13;2.63;;;13.80;99.90;;;;;;5006800;28;20133;-65
2022/06/03 03:37:02;;;;;;;5.13;2.85;;;13.80;99.90;;;;;;4977170;28;20492;-65
2022/06/03 03:39:35;;;;;;;4.88;3.40;;;13.90;99.90;;;;;;4988796;28;20049;-66
2022/06/03 03:42:29;;;;;;;5.50;3.53;;;13.90;99.90;;;;;;5020416;28;20116;-66
2022/06/03 03:45:14;;;;;;;6.55;4.38;;;14.00;99.90;;;;;;5030789;28;20149;-66
2022/06/03 03:48:12;;;;;;;6.75;3.90;;;14.10;99.90;;;;;;5023566;28;20045;-66
2022/06/03 03:51:01;;;;;;;5.45;4.13;;;14.10;99.90;;;;;;5031080;28;20132;-66
2022/06/03 03:53:47;;;;;;;5.53;3.58;;;14.10;99.90;;;;;;5021215;28;20412;-66
2022/06/03 03:57:02;;;;;;;6.75;4.15;;;14.20;99.90;;;;;;5045776;28;20045;-66
2022/06/03 04:00:00;;;;;;;7.53;5.38;;;14.20;99.90;;;;;;5037105;28;20033;-66
2022/06/03 04:02:39;;;;;;;6.00;3.97;;;14.20;99.90;;;;;;5041145;28;20461;-66
2022/06/03 04:05:34;;;;;;;5.95;3.72;;;14.30;99.90;;;;;;5035629;28;20106;-66
2022/06/03 04:08:12;;;;;;;6.47;3.65;;;14.30;99.90;;;;;;5037375;28;20505;-66
2022/06/03 04:11:21;;;;;;;6.40;2.97;;;14.30;99.90;;;;;;5025168;28;20077;-66
2022/06/03 04:14:19;;;;;;;10.52;4.45;;;14.30;99.90;;;;;;5022807;28;20076;-66
2022/06/03 04:16:52;;;;;;;6.20;4.30;;;14.30;99.90;;;;;;5029113;28;20530;-66
2022/06/03 04:19:58;;;;;;;8.73;5.45;;;14.40;99.90;;;;;;5024332;28;20045;-66
2022/06/03 04:22:59;;;;;;;7.38;3.55;;;14.40;99.90;;;;;;5021868;28;20216;-66
2022/06/03 04:25:48;;;;;;;10.30;5.88;;;14.60;99.90;;;;;;5015610;28;20104;-67
2022/06/03 04:28:40;;;;;;;12.02;5.47;;;14.70;99.90;;;;;;5028354;28;20570;-66
2022/06/03 04:31:55;;;;;;;6.65;3.75;;;14.80;99.90;;;;;;5030786;28;20433;-66
2022/06/03 04:34:48;;;;;;;6.78;4.22;;;14.90;99.90;;;;;;5028998;28;20061;-66
2022/06/03 04:37:27;;;;;;;5.40;3.42;;;15.10;99.90;;;;;;5019076;28;20073;-66
2022/06/03 04:40:27;;;;;;;5.93;3.47;;;15.20;99.90;;;;;;5008355;28;20049;-66
2022/06/03 04:43:23;;;;;;;7.43;3.50;;;15.30;99.90;;;;;;5034210;28;20053;-66
2022/06/03 04:46:08;;;;;;;5.95;2.90;;;15.40;99.90;;;;;;5030664;28;20053;-66
2022/06/03 04:49:06;;;;;;;5.35;3.30;;;15.60;99.90;;;;;;5028925;28;20053;-66
2022/06/03 04:51:58;;;;;;;6.63;3.20;;;15.70;99.90;;;;;;5030181;28;20535;-66
2022/06/03 04:54:55;;;;;;;3.85;2.50;;;15.90;99.90;;;;;;5038497;28;20096;-66
2022/06/03 04:58:04;;;;;;;4.88;2.78;;;16.00;99.90;;;;;;5028263;28;20104;-66
2022/06/03 05:00:39;;;;;;;3.80;2.72;;;16.10;99.90;;;;;;5026472;28;20049;-66
2022/06/03 05:03:43;;;;;;;4.38;2.60;;;16.20;99.90;;;;;;5027094;28;20143;-66
2022/06/03 05:06:38;;;;;;;8.88;4.35;;;16.30;99.90;;;;;;5023462;28;20536;-66
2022/06/03 05:09:41;;;;;;;7.68;4.88;;;16.40;99.90;;;;;;5023719;28;20591;-66
2022/06/03 05:12:42;;;;;;;8.40;4.30;;;16.50;99.90;;;;;;5026910;28;20474;-66
2022/06/03 05:15:34;;;;;;;7.40;3.92;;;16.60;99.90;;;;;;5011895;28;20092;-66
2022/06/03 05:18:03;;;;;;;7.30;3.30;;;16.70;99.90;;;;;;5030310;28;20102;-66
2022/06/03 05:21:08;;;;;;;6.63;3.97;;;16.70;99.90;;;;;;5027069;28;20044;-66
2022/06/03 05:23:54;;;;;;;6.00;3.60;;;16.80;99.90;;;;;;5027748;28;20132;-66
2022/06/03 05:27:13;;;;;;;9.02;3.13;;;17.00;99.90;;;;;;5027482;28;20099;-66
2022/06/03 05:29:52;;;;;;;4.43;2.65;;;17.00;99.90;;;;;;5024219;28;20477;-66
2022/06/03 05:32:40;;;;;;;6.82;3.03;;;17.10;99.90;;;;;;5010259;28;20112;-65
2022/06/03 05:35:33;;;;;;;5.93;2.80;;;17.10;99.90;;;;;;5033829;28;20256;-66
2022/06/03 05:38:21;;;;;;;4.85;2.22;;;17.00;99.90;;;;;;5026846;28;20528;-65
2022/06/03 05:44:40;;;;;;;4.47;3.05;;;17.20;99.90;;;;;;5019354;28;20721;-65
2022/06/03 05:47:16;;;;;;;11.40;3.75;;;17.20;99.90;;;;;;5022328;28;20073;-65
2022/06/03 05:50:07;;;;;;;7.75;3.40;;;17.20;99.90;;;;;;5023905;28;20546;-67
2022/06/03 05:53:18;;;;;;;5.72;2.92;;;17.20;99.90;;;;;;5026559;28;20057;-66
2022/06/03 05:56:03;;;;;;;6.88;3.35;;;17.20;99.90;;;;;;5024531;28;20313;-65
2022/06/03 05:58:52;;;;;;;6.45;3.03;;;17.30;99.90;;;;;;5029177;28;20148;-66
2022/06/03 06:01:48;;;;;;;5.05;2.78;;;17.30;99.90;;;;;;5021986;28;20159;-65
2022/06/03 06:04:43;;;;;;;7.93;4.80;;;17.30;99.90;;;;;;5036527;28;20049;-65
2022/06/03 06:07:40;;;;;;;11.73;6.13;;;17.40;99.90;;;;;;5032724;28;20037;-66
2022/06/03 06:10:18;;;;;;;7.72;4.30;;;17.50;99.90;;;;;;5023295;28;20123;-66
2022/06/03 06:12:55;;;;;;;8.13;3.55;;;17.50;99.90;;;;;;5021610;28;20132;-66
2022/06/03 06:15:38;;;;;;;5.70;2.90;;;17.60;99.90;;;;;;5029789;28;20129;-66
2022/06/03 06:18:19;;;;;;;5.53;2.80;;;17.60;99.90;;;;;;5020939;28;20120;-66
2022/06/03 06:21:09;;;;;;;6.07;2.65;;;17.70;99.90;;;;;;5033190;28;20076;-67
2022/06/03 06:24:03;;;;;;;5.53;4.20;;;17.80;99.90;;;;;;5030228;28;20103;-66
2022/06/03 06:26:49;;;;;;;6.45;3.88;;;17.80;99.90;;;;;;5029370;28;20041;-66
2022/06/03 06:29:43;;;;;;;8.07;3.35;;;18.00;99.90;;;;;;5030222;28;20057;-66
2022/06/03 06:32:29;;;;;;;4.40;2.95;;;18.20;99.90;;;;;;5029404;28;20603;-66
2022/06/03 06:35:35;;;;;;;4.57;2.80;;;18.30;99.90;;;;;;5029956;28;20110;-66
2022/06/03 06:38:34;;;;;;;5.50;2.90;;;18.40;99.90;;;;;;5037960;28;20045;-66
2022/06/03 06:41:04;;;;;;;5.25;2.90;;;18.50;99.90;;;;;;5040860;28;20049;-66
2022/06/03 06:43:47;;;;;;;8.98;4.07;;;18.60;99.90;;;;;;5031606;28;20040;-66
2022/06/03 06:46:38;;;;;;;6.78;3.58;;;18.80;99.90;;;;;;5034037;28;20053;-65
2022/06/03 06:49:11;;;;;;;7.20;3.15;;;18.90;99.90;;;;;;5028323;28;20378;-64
2022/06/03 06:52:03;;;;;;;6.95;2.70;;;19.00;99.90;;;;;;5028779;28;20038;-64
2022/06/03 06:54:48;;;;;;;7.72;3.45;;;19.10;99.90;;;;;;5029454;28;20423;-65
2022/06/03 06:57:36;;;;;;;6.38;3.45;;;19.20;99.90;;;;;;5030823;28;20926;-64
2022/06/03 07:00:24;;;;;;;6.32;3.80;;;19.30;99.90;;;;;;5030587;28;20140;-66
2022/06/03 07:03:08;;;;;;;6.55;3.80;;;19.40;99.90;;;;;;5026637;28;20440;-64
2022/06/03 07:06:01;;;;;;;8.32;2.90;;;19.60;99.90;;;;;;5027896;28;20055;-64
2022/06/03 07:08:57;;;;;;;5.65;3.60;;;19.80;99.90;;;;;;5031529;28;20072;-64
2022/06/03 07:11:36;;;;;;;4.88;3.08;;;19.80;99.90;;;;;;5021301;28;20044;-65
2022/06/03 07:14:10;;;;;;;8.27;3.00;;;20.00;99.90;;;;;;5028915;28;20030;-65
2022/06/03 07:20:06;;;;;;;8.00;2.88;;;20.20;99.90;;;;;;5022855;28;20046;-66
2022/06/03 07:22:52;;;;;;;7.20;3.15;;;20.20;99.90;;;;;;5023334;28;20041;-65
2022/06/03 07:25:36;;;;;;;5.30;3.33;;;20.30;99.90;;;;;;5028853;28;20049;-66
2022/06/03 07:28:18;;;;;;;6.63;3.78;;;20.50;99.90;;;;;;5031622;28;20041;-65
2022/06/03 07:31:13;;;;;;;6.80;3.95;;;20.60;99.90;;;;;;5028746;28;20116;-65
2022/06/03 07:33:46;;;;;;;8.40;3.58;;;20.80;99.90;;;;;;5026477;28;20049;-66
2022/06/03 07:36:21;;;;;;;9.50;3.70;;;20.90;99.90;;;;;;5038359;28;20073;-66
2022/06/03 07:38:56;;;;;;;7.78;3.42;;;21.00;99.90;;;;;;5036135;28;20080;-66
2022/06/03 07:41:47;;;;;;;10.50;3.80;;;21.20;99.90;;;;;;5030814;28;20544;-66
2022/06/03 07:44:23;;;;;;;6.75;3.20;;;21.30;99.90;;;;;;5036190;28;20048;-66
2022/06/03 07:47:00;;;;;;;7.57;4.35;;;21.50;99.90;;;;;;5037379;28;20048;-66
2022/06/03 07:49:31;;;;;;;6.82;3.40;;;21.60;99.90;;;;;;5026896;28;20037;-66
2022/06/03 07:52:14;;;;;;;7.05;3.17;;;21.90;99.90;;;;;;5022805;28;20411;-65
2022/06/03 07:54:50;;;;;;;8.88;3.42;;;22.00;99.90;;;;;;5030546;28;20412;-65
2022/06/03 07:57:26;;;;;;;8.02;3.30;;;22.10;99.90;;;;;;5010899;28;20068;-65
2022/06/03 08:00:00;;;;;;;6.07;2.88;;;22.30;99.90;;;;;;5031584;28;20132;-65
2022/06/03 08:02:30;;;;;;;8.25;3.35;;;22.40;99.90;;;;;;5030623;28;20427;-67
2022/06/03 08:05:10;;;;;;;8.35;3.15;;;22.50;99.90;;;;;;5019256;28;20625;-64
2022/06/03 08:13:19;;;;;;;13.15;3.17;;;22.70;99.90;;;;;;5023820;28;20109;-66
2022/06/03 08:16:05;;;;;;;7.72;3.30;;;22.90;99.90;;;;;;5027348;28;20042;-66
2022/06/03 08:18:40;;;;;;;7.75;3.92;;;22.90;99.90;;;;;;5024210;28;20045;-65
2022/06/03 08:21:11;;;;;;;12.80;3.30;;;23.00;99.90;;;;;;5012553;28;20137;-66
2022/06/03 08:23:39;;;;;;;6.03;3.03;;;23.10;99.90;;;;;;5026916;28;20567;-65
2022/06/03 08:26:16;;;;;;;6.00;3.10;;;23.10;99.90;;;;;;5030228;28;20131;-65
2022/06/03 08:28:48;;;;;;;10.65;2.65;;;23.20;99.90;;;;;;5029099;28;20045;-66
2022/06/03 08:31:22;;;;;;;8.43;3.13;;;23.20;99.90;;;;;;5023515;28;20405;-65
2022/06/03 08:33:58;;;;;;;6.13;3.05;;;23.20;99.90;;;;;;5026906;28;20053;-65
2022/06/03 08:36:30;;;;;;;8.32;2.95;;;23.30;99.90;;;;;;5030243;28;20114;-65
2022/06/03 08:39:01;;;;;;;8.02;3.58;;;23.30;99.90;;;;;;5029055;28;20425;-65
2022/06/03 08:41:45;;;;;;;7.65;3.45;;;23.50;99.90;;;;;;5029793;28;20069;-64
2022/06/03 08:44:49;;;;;;;4.97;3.13;;;23.50;99.90;;;;;;5027292;28;20044;-64
2022/06/03 08:47:30;;;;;;;9.60;3.35;;;23.50;99.90;;;;;;5026630;28;20045;-64
2022/06/03 08:50:02;;;;;;;5.70;3.05;;;23.60;99.90;;;;;;5031297;28;20334;-64
2022/06/03 08:53:14;;;;;;;7.35;2.97;;;23.70;99.90;;;;;;5031614;28;20620;-64
2022/06/03 08:55:45;;;;;;;7.18;2.95;;;23.80;99.90;;;;;;5022756;28;20369;-65
2022/06/03 08:58:36;;;;;;;5.90;2.63;;;23.90;99.90;;;;;;5023374;28;20536;-66
2022/06/03 09:01:20;;;;;;;9.60;3.80;;;23.90;99.90;;;;;;5007815;28;20065;-65
2022/06/03 09:04:17;;;;;;;6.45;3.90;;;24.00;99.90;;;;;;5026545;28;20510;-65
2022/06/03 09:07:03;;;;;;;4.65;3.00;;;24.20;99.90;;;;;;5024322;28;20050;-64
2022/06/03 09:09:51;;;;;;;6.68;3.00;;;24.10;99.90;;;;;;5026589;28;20057;-65
2022/06/03 09:12:38;;;;;;;6.15;3.10;;;24.20;99.90;;;;;;5015670;28;20080;-65
2022/06/03 09:15:12;;;;;;;6.97;3.00;;;24.40;99.90;;;;;;5045258;28;20511;-64
2022/06/03 09:18:11;;;;;;;6.97;3.22;;;24.50;99.90;;;;;;5029117;28;20095;-66
2022/06/03 09:20:55;;;;;;;10.07;3.10;;;24.60;99.90;;;;;;5018038;28;20054;-65
2022/06/03 09:23:24;;;;;;;7.65;3.10;;;24.70;99.90;;;;;;5024624;28;20041;-64
2022/06/03 09:25:55;;;;;;;6.03;3.08;;;24.80;99.90;;;;;;5032946;28;20041;-66
2022/06/03 09:28:31;;;;;;;6.32;3.03;;;24.90;99.90;;;;;;5027086;28;20547;-65
2022/06/03 09:31:01;;;;;;;10.75;3.50;;;25.00;99.90;;;;;;5028445;28;20592;-66
2022/06/03 09:33:30;;;;;;;4.47;2.80;;;25.20;99.90;;;;;;5035918;28;20060;-65
2022/06/03 09:36:00;;;;;;;7.65;3.10;;;25.40;99.90;;;;;;5034814;28;20077;-65
2022/06/03 09:38:34;;;;;;;5.82;2.83;;;25.60;99.90;;;;;;5038939;28;20038;-65
2022/06/03 09:41:02;;;;;;;5.57;2.47;;;25.70;99.90;;;;;;5046262;28;20041;-65
2022/06/03 09:43:35;;;;;;;5.95;2.60;;;25.80;99.90;;;;;;5038241;28;20053;-66
2022/06/03 09:46:05;;;;;;;5.45;2.83;;;26.00;99.90;;;;;;5026336;28;20030;-65
2022/06/03 09:48:37;;;;;;;8.18;3.17;;;26.10;99.90;;;;;;5029015;28;20415;-65
2022/06/03 09:51:25;;;;;;;5.05;2.92;;;26.20;99.90;;;;;;5029987;28;20465;-65
2022/06/03 09:53:52;;;;;;;5.45;2.70;;;26.20;99.90;;;;;;5029349;28;20045;-65
2022/06/03 09:56:30;;;;;;;10.23;2.97;;;26.40;99.90;;;;;;5049215;28;20143;-65
2022/06/03 09:59:01;;;;;;;5.95;2.95;;;26.60;99.90;;;;;;5049061;28;20543;-65
2022/06/03 10:01:29;;;;;;;8.18;2.40;;;26.70;99.90;;;;;;5035835;28;20038;-65
2022/06/03 10:04:01;;;;;;;4.80;2.65;;;27.00;99.90;;;;;;5028262;28;20570;-65
2022/06/03 10:06:43;;;;;;;9.48;2.90;;;27.20;99.90;;;;;;5034151;28;20065;-64
2022/06/03 10:15:37;;;;;;;6.30;3.03;;;27.60;99.90;;;;;;5047849;28;20757;-65
2022/06/03 10:17:35;;;;;;;7.00;2.83;;;27.50;99.90;;;;;;5034140;28;20574;-64
2022/06/03 10:20:08;;;;;;;4.88;2.60;;;27.60;99.90;;;;;;5034952;28;20048;-64
2022/06/03 10:22:36;;;;;;;5.80;2.50;;;27.80;99.90;;;;;;5032690;28;20041;-65
2022/06/03 10:25:04;;;;;;;5.25;2.50;;;28.10;99.90;;;;;;5035070;28;20064;-66
2022/06/03 10:27:32;;;;;;;9.77;2.45;;;28.30;99.90;;;;;;5030086;28;20408;-64
2022/06/03 10:29:59;;;;;;;3.80;2.42;;;28.40;99.90;;;;;;5029304;28;20051;-65
2022/06/03 10:32:27;;;;;;;6.32;2.42;;;28.50;99.90;;;;;;5030689;28;20045;-65
2022/06/03 10:35:28;;;;;;;3.88;2.17;;;28.70;99.90;;;;;;5038916;28;20040;-65
2022/06/03 10:37:58;;;;;;;4.78;2.50;;;28.90;99.90;;;;;;5033873;28;20048;-65
2022/06/03 10:40:33;;;;;;;5.25;2.42;;;29.10;99.90;;;;;;5032293;28;20044;-65
2022/06/03 10:43:03;;;;;;;7.55;2.53;;;29.00;99.90;;;;;;5046467;28;20476;-65
2022/06/03 10:45:37;;;;;;;9.93;2.40;;;29.10;99.90;;;;;;5039267;28;20045;-65
2022/06/03 10:48:25;;;;;;;4.25;2.25;;;29.40;99.90;;;;;;5033200;28;20041;-65
2022/06/03 10:50:53;;;;;;;3.45;2.20;;;29.60;99.60;;;;;;5021950;28;20053;-65
2022/06/03 11:01:51;;;;;;;4.47;2.28;;;30.20;97.50;;;;;;5020342;28;20053;-66
2022/06/03 11:04:27;;;;;;;4.15;2.38;;;30.20;97.20;;;;;;5036600;28;20601;-65
2022/06/03 11:06:58;;;;;;;4.60;2.42;;;30.60;96.60;;;;;;5028057;28;20051;-65
2022/06/03 11:09:26;;;;;;;5.53;2.50;;;30.90;96.10;;;;;;5036689;28;20069;-65
2022/06/03 11:12:03;;;;;;;6.65;2.40;;;30.90;95.90;;;;;;5021956;28;20148;-65
2022/06/03 11:14:42;;;;;;;5.32;2.70;;;31.00;95.50;;;;;;5027811;28;20144;-65
2022/06/03 11:17:20;;;;;;;6.05;2.60;;;31.10;95.10;;;;;;5026856;28;20056;-65
2022/06/03 11:19:56;;;;;;;4.10;2.15;;;31.30;94.90;;;;;;5039037;28;20045;-65
2022/06/03 11:22:36;;;;;;;4.60;2.30;;;31.30;94.30;;;;;;5042835;28;20045;-65
2022/06/03 11:25:27;;;;;;;5.50;2.55;;;31.50;93.60;;;;;;5034684;28;20045;-65
2022/06/03 11:28:06;;;;;;;8.07;2.95;;;31.90;93.20;;;;;;5027278;28;20657;-65
2022/06/03 11:30:49;;;;;;;5.40;2.17;;;31.70;93.00;;;;;;5018450;28;20068;-64
2022/06/03 11:33:34;;;;;;;5.00;2.20;;;31.90;92.70;;;;;;5029808;28;20041;-64
2022/06/03 11:36:04;;;;;;;5.13;2.20;;;32.10;92.50;;;;;;5011747;28;20405;-65
2022/06/03 11:38:39;;;;;;;5.00;2.55;;;32.50;92.30;;;;;;5030540;28;20377;-66
2022/06/03 11:41:14;;;;;;;4.07;2.30;;;32.70;91.50;;;;;;5030389;28;20041;-66
2022/06/03 11:44:03;;;;;;;3.63;1.98;;;33.10;90.70;;;;;;5034497;28;20474;-65
2022/06/03 11:46:36;;;;;;;4.70;2.70;;;33.60;90.00;;;;;;5033793;28;20045;-65
2022/06/03 11:49:08;;;;;;;3.97;2.30;;;33.70;88.70;;;;;;5034377;28;20049;-65
2022/06/03 11:51:36;;;;;;;5.78;2.17;;;33.70;87.70;;;;;;5033605;28;20041;-65
2022/06/03 11:54:11;;;;;;;4.68;2.60;;;34.10;86.70;;;;;;5034437;28;20049;-65
2022/06/03 11:56:41;;;;;;;7.05;2.50;;;34.80;85.10;;;;;;5033360;28;20517;-65
2022/06/03 11:59:16;;;;;;;5.80;2.92;;;35.50;83.50;;;;;;5028501;28;20041;-65
2022/06/03 12:01:49;;;;;;;9.05;2.53;;;36.00;81.40;;;;;;5033540;28;20120;-65
2022/06/03 12:04:27;;;;;;;7.45;3.40;;;35.90;81.20;;;;;;5027696;28;20113;-65
2022/06/03 12:07:11;;;;;;;5.55;2.50;;;35.70;80.00;;;;;;5030834;28;20045;-65
2022/06/03 12:09:48;;;;;;;8.95;3.47;;;35.80;78.60;;;;;;5040921;28;20045;-64
2022/06/03 12:15:31;;;;;;;5.28;2.60;;;35.90;77.40;;;;;;5029941;28;20338;-65
2022/06/03 12:18:09;;;;;;;5.53;3.40;;;36.10;77.70;;;;;;5020286;28;20046;-65
2022/06/03 12:20:51;;;;;;;5.28;2.75;;;36.50;75.70;;;;;;5018904;28;20053;-64
2022/06/03 12:23:19;;;;;;;4.80;2.35;;;37.20;74.40;;;;;;5020428;28;20048;-65
2022/06/03 12:25:54;;;;;;;8.60;2.60;;;37.70;72.90;;;;;;5027527;28;20045;-64
2022/06/03 12:28:30;;;;;;;4.03;2.35;;;38.80;71.60;;;;;;5027427;28;20168;-64
2022/06/03 12:31:07;;;;;;;6.82;2.78;;;39.40;69.40;;;;;;5016960;28;20070;-64
2022/06/03 12:33:48;;;;;;;7.68;2.17;;;40.20;67.20;;;;;;5036599;28;20057;-65
2022/06/03 12:36:36;;;;;;;6.40;2.90;;;40.00;66.50;;;;;;5026315;28;20507;-65
2022/06/03 12:39:05;;;;;;;4.88;2.00;;;39.20;66.50;;;;;;5031912;28;20523;-65
2022/06/03 12:42:32;;;;;;;6.53;2.83;;;38.40;66.90;;;;;;5035518;28;20029;-65
2022/06/03 12:45:04;;;;;;;6.25;2.42;;;37.30;68.10;;;;;;5031854;28;20412;-65
2022/06/03 12:47:34;;;;;;;8.32;2.20;;;37.10;69.30;;;;;;5029505;28;20067;-65
2022/06/03 12:50:04;;;;;;;4.22;2.40;;;37.50;68.30;;;;;;5045410;28;20048;-65
2022/06/03 12:52:33;;;;;;;7.15;2.88;;;36.80;69.00;;;;;;5038755;28;20554;-64
2022/06/03 12:55:13;;;;;;;6.07;3.10;;;36.40;68.80;;;;;;5042033;28;20053;-65
2022/06/03 12:58:23;;;;;;;6.60;2.65;;;35.80;69.40;;;;;;5036210;28;20397;-65
2022/06/03 13:00:54;;;;;;;7.43;2.78;;;35.00;71.30;;;;;;5036711;28;20595;-66
2022/06/03 13:03:24;;;;;;;4.18;2.40;;;35.00;71.60;;;;;;5031635;28;20450;-65
2022/06/03 13:05:57;;;;;;;5.23;3.07;;;35.70;70.90;;;;;;5034913;28;20568;-65
2022/06/03 13:09:34;;;;;;;4.63;2.70;;;35.90;70.10;;;;;;5034836;28;20257;-65
2022/06/03 13:11:22;;;;;;;6.00;2.40;;;35.30;70.60;;;;;;5026297;28;20132;-65
2022/06/03 13:14:10;;;;;;;7.40;3.85;;;35.40;70.50;;;;;;5034298;28;20053;-65
2022/06/03 13:16:43;;;;;;;5.18;2.55;;;35.60;70.90;;;;;;5031196;28;20099;-65
2022/06/03 13:19:17;;;;;;;6.25;2.30;;;35.60;70.50;;;;;;5027976;28;20095;-65
2022/06/03 13:21:56;;;;;;;4.85;2.13;;;35.70;70.30;;;;;;5040837;28;20350;-65
2022/06/03 13:24:26;;;;;;;4.05;2.08;;;36.00;70.20;;;;;;5029422;28;20048;-65
2022/06/03 13:27:11;;;;;;;4.25;1.75;;;36.10;69.50;;;;;;5031399;28;20042;-65
2022/06/03 13:29:55;;;;;;;3.80;2.10;;;35.90;69.60;;;;;;5030826;28;20408;-65
2022/06/03 13:32:35;;;;;;;4.63;2.33;;;36.10;69.20;;;;;;5029164;28;20038;-65
2022/06/03 13:35:23;;;;;;;2.80;1.63;;;35.40;69.40;;;;;;5025731;28;20539;-65
2022/06/03 13:37:58;;;;;;;3.08;2.20;;;35.90;69.20;;;;;;5032492;28;20057;-65
2022/06/03 13:40:25;;;;;;;5.63;2.20;;;36.30;69.40;;;;;;5047374;28;20444;-66
2022/06/03 13:42:58;;;;;;;6.43;3.08;;;36.40;68.70;;;;;;5047005;28;20090;-65
2022/06/03 13:45:44;;;;;;;4.30;2.10;;;36.80;68.20;;;;;;5049238;28;20522;-65
2022/06/03 13:48:25;;;;;;;7.32;2.60;;;37.10;67.20;;;;;;5018438;28;20534;-65
2022/06/03 13:50:52;;;;;;;5.05;2.53;;;37.10;66.60;;;;;;5023519;28;20425;-66
2022/06/03 13:53:30;;;;;;;7.90;2.38;;;37.30;67.00;;;;;;5031636;28;20049;-66
2022/06/03 13:56:06;;;;;;;5.53;2.00;;;38.30;66.70;;;;;;5029356;28;20041;-65
2022/06/03 13:58:40;;;;;;;5.70;2.30;;;39.20;65.40;;;;;;5029708;28;20119;-65
2022/06/03 14:01:42;;;;;;;6.35;2.00;;;39.80;63.20;;;;;;5037059;28;20135;-65
2022/06/03 14:04:19;;;;;;;4.28;1.88;;;39.50;62.40;;;;;;5035337;28;20514;-66
2022/06/03 14:06:59;;;;;;;6.45;2.40;;;39.70;62.10;;;;;;5032544;28;20424;-66
2022/06/03 14:09:29;;;;;;;3.65;1.90;;;40.10;62.00;;;;;;5033686;28;20444;-65
2022/06/03 14:12:25;;;;;;;4.28;2.03;;;40.50;61.30;;;;;;5013718;28;20477;-65
2022/06/03 14:15:07;;;;;;;3.50;1.90;;;39.90;61.50;;;;;;5032446;28;20125;-66
2022/06/03 14:17:47;;;;;;;5.18;1.80;;;39.80;61.80;;;;;;5034083;28;20056;-65
2022/06/03 14:20:21;;;;;;;3.42;1.67;;;38.80;62.50;;;;;;5037745;28;20427;-66
2022/06/03 14:22:48;;;;;;;5.03;2.25;;;38.40;63.20;;;;;;5037608;28;20552;-66
2022/06/03 14:25:18;;;;;;;5.20;1.98;;;38.20;63.70;;;;;;5031790;28;20041;-66
2022/06/03 14:28:01;;;;;;;6.93;2.07;;;38.30;63.30;;;;;;5031956;28;20041;-65
2022/06/03 14:31:07;;;;;;;3.10;1.85;;;39.00;62.70;;;;;;5021367;28;20361;-66
2022/06/03 14:33:40;;;;;;;5.57;1.83;;;39.60;61.70;;;;;;5034669;28;20079;-65
2022/06/03 14:36:10;;;;;;;4.00;1.67;;;40.20;61.10;;;;;;5032804;28;20136;-65
2022/06/03 14:38:42;;;;;;;5.05;1.92;;;40.00;61.30;;;;;;5038496;28;20515;-65
2022/06/03 14:41:13;;;;;;;5.15;1.95;;;39.00;61.80;;;;;;5030810;28;20400;-65